Latest Weather Observations for Smithton

IDT60801

Issued at 10:11 am EST Monday 19 April 2021 (issued every 10 minutes, with the page automatically refreshed every 10 minutes)

About weather observations | Map of weather stations | Latest weather observations for TAS | Other Formats
Station Details ID: 091292 Name: SMITHTON AERODROME Lat: -40.83 Lon: 145.08 Height: 7.5 m
Data from the previous 72 hours. | See also: Recent months at Smithton
Date/Time
EST
Temp
°C
App
Temp
°C
Dew
Point
°C
Rel
Hum
%
Delta-T
°C
Wind Press
QNH
hPa
Press
MSL
hPa
Rain since
9am
mm
Dir  Spd
km/h
Gust
km/h
Spd
kts
Gust
kts
19/10:00am 16.0 13.7 11.6 75 2.4 W 15 20 8 11 1012.6 1012.6 0.0
19/09:30am 14.9 13.8 11.9 82 1.6 WNW 9 13 5 7 1013.1 1013.1 0.0
19/09:00am 13.7 12.3 11.0 84 1.4 W 9 13 5 7 1013.2 1013.2 0.8
19/08:30am 13.2 10.3 10.9 86 1.2 W 17 22 9 12 1013.4 1013.4 0.8
19/08:00am 12.7 10.3 11.4 92 0.7 WSW 15 20 8 11 1013.2 1013.2 0.8
19/07:30am 12.3 9.1 11.4 94 0.5 WNW 19 28 10 15 1013.1 1013.1 0.8
19/07:00am 11.8 10.3 10.7 93 0.6 WNW 9 11 5 6 1013.1 1013.1 0.6
19/06:30am 12.2 10.0 10.9 92 0.7 W 13 20 7 11 1013.1 1013.1 0.6
19/06:00am 11.8 10.8 10.2 90 0.8 W 6 11 3 6 1013.2 1013.2 0.6
19/05:30am 11.1 9.7 9.5 90 0.8 WNW 7 9 4 5 1013.3 1013.3 0.6
19/05:00am 11.8 9.8 10.0 89 0.9 W 11 13 6 7 1013.1 1013.1 0.6
19/04:30am 12.0 10.0 10.1 88 1.0 WSW 11 15 6 8 1013.2 1013.2 0.6
19/04:00am 12.2 8.7 10.3 88 1.0 W 19 26 10 14 1013.3 1013.3 0.6
19/03:30am 11.9 9.8 11.0 94 0.5 W 13 17 7 9 1013.6 1013.6 0.6
19/03:00am 11.7 9.8 10.6 93 0.6 W 11 11 6 6 1014.0 1014.0 0.6
19/02:30am 11.8 9.6 10.9 94 0.5 W 13 15 7 8 1014.4 1014.4 0.6
19/02:00am 12.0 10.4 11.4 96 0.3 WSW 11 17 6 9 1014.9 1014.9 0.6
19/01:30am 12.4 10.1 11.8 96 0.3 WSW 15 20 8 11 1015.0 1015.0 0.6
19/01:00am 12.2 9.9 11.6 96 0.3 WSW 15 19 8 10 1015.2 1015.2 0.6
19/12:30am 12.3 10.4 11.8 97 0.3 W 13 20 7 11 1015.4 1015.4 0.6
19/12:00am 11.3 9.5 10.7 96 0.3 WNW 11 13 6 7 1015.4 1015.4 0.2
 
Date/Time
EST
Temp
°C
App
Temp
°C
Dew
Point
°C
Rel
Hum
%
Delta-T
°C
Wind Press
QNH
hPa
Press
MSL
hPa
Rain since
9am
mm
Dir  Spd
km/h
Gust
km/h
Spd
kts
Gust
kts
18/11:30pm 11.1 9.5 10.3 95 0.4 WNW 9 13 5 7 1015.7 1015.7 0.2
18/11:00pm 11.5 11.7 10.6 94 0.5 CALM 0 9 0 5 1016.0 1016.0 0.2
18/10:30pm 11.9 11.0 10.8 93 0.6 SW 6 7 3 4 1016.5 1016.5 0.2
18/10:00pm 12.6 10.4 10.7 88 1.0 W 13 17 7 9 1016.8 1016.8 0.0
18/09:30pm 13.0 10.6 10.0 82 1.5 WSW 13 17 7 9 1016.9 1016.9 0.0
18/09:00pm 12.7 10.7 10.1 84 1.3 SW 11 13 6 7 1016.8 1016.8 0.0
18/08:30pm 12.4 10.2 9.4 82 1.5 W 11 15 6 8 1016.7 1016.7 0.0
18/08:00pm 12.9 10.3 9.4 79 1.8 W 13 17 7 9 1016.7 1016.7 0.0
18/07:30pm 12.6 10.9 10.0 84 1.3 W 9 13 5 7 1016.9 1016.9 0.0
18/07:00pm 12.9 10.8 9.9 82 1.5 W 11 13 6 7 1016.9 1016.9 0.0
18/06:30pm 13.3 10.8 9.7 79 1.8 W 13 17 7 9 1016.9 1016.9 0.0
18/06:00pm 13.5 10.3 10.1 80 1.8 WSW 17 20 9 11 1016.9 1016.9 0.0
18/05:30pm 13.7 10.7 10.7 82 1.6 WSW 17 24 9 13 1016.8 1016.8 0.0
18/05:00pm 14.0 11.5 11.2 83 1.5 WSW 15 24 8 13 1016.7 1016.7 0.0
18/04:30pm 14.1 10.3 11.1 82 1.6 WSW 22 30 12 16 1016.8 1016.8 0.0
18/04:00pm 14.6 10.5 11.4 81 1.7 SW 24 32 13 17 1016.7 1016.7 0.0
18/03:30pm 16.3 12.5 12.3 77 2.2 W 24 32 13 17 1016.6 1016.6 0.0
18/03:00pm 15.9 11.9 11.9 77 2.2 WSW 24 33 13 18 1016.5 1016.5 0.0
18/02:30pm 14.9 11.6 11.7 81 1.7 WSW 20 30 11 16 1016.8 1016.8 0.0
18/02:00pm 14.9 10.1 11.7 81 1.7 W 28 43 15 23 1017.0 1017.0 0.0
18/01:30pm 16.8 12.6 11.1 69 3.1 WSW 24 32 13 17 1017.2 1017.2 0.0
18/01:00pm 16.9 12.4 11.4 70 3.0 WSW 26 35 14 19 1017.7 1017.7 0.0
18/12:30pm 16.0 11.7 12.0 77 2.2 WSW 26 33 14 18 1018.2 1018.2 0.0
18/12:00pm 15.5 10.7 11.7 78 2.0 WSW 28 35 15 19 1018.5 1018.5 0.0
18/11:30am 15.3 10.6 11.9 80 1.8 W 28 35 15 19 1018.7 1018.7 0.0
18/11:00am 15.2 10.9 12.0 81 1.7 W 26 33 14 18 1018.9 1018.9 0.0
18/10:30am 14.5 11.5 12.7 89 1.0 W 20 30 11 16 1019.3 1019.3 0.0
18/10:00am 14.6 11.6 12.5 87 1.1 WSW 20 26 11 14 1019.6 1019.6 0.0
18/09:30am 14.2 11.6 12.1 87 1.1 WSW 17 22 9 12 1019.8 1019.8 0.0
18/09:00am 13.7 11.6 12.4 92 0.7 WSW 15 22 8 12 1019.9 1019.9 0.6
18/08:30am 12.6 10.3 11.7 94 0.5 W 15 20 8 11 1019.8 1019.8 0.6
18/08:00am 11.8 9.0 11.3 97 0.3 WSW 17 24 9 13 1019.7 1019.7 0.6
18/07:30am 11.2 8.9 10.6 96 0.3 WSW 13 20 7 11 1019.4 1019.4 0.6
18/07:00am 10.3 8.1 9.5 95 0.4 WSW 11 13 6 7 1019.2 1019.2 0.4
18/06:30am 10.9 8.5 10.1 95 0.4 WSW 13 17 7 9 1019.1 1019.1 0.4
18/06:00am 11.1 8.0 10.3 95 0.4 WSW 17 20 9 11 1019.1 1019.1 0.4
18/05:30am 11.4 9.1 10.6 95 0.4 WSW 13 17 7 9 1019.3 1019.3 0.4
18/05:00am 10.4 7.8 9.2 92 0.6 WSW 13 17 7 9 1019.3 1019.3 0.4
18/04:30am 11.3 8.2 10.4 94 0.5 WSW 17 22 9 12 1019.2 1019.2 0.4
18/04:00am 11.8 9.3 10.9 94 0.5 SW 15 19 8 10 1019.1 1019.1 0.4
18/03:30am 11.3 8.4 9.7 90 0.8 SW 15 17 8 9 1019.0 1019.0 0.4
18/03:00am 12.2 10.0 10.9 92 0.7 WSW 13 17 7 9 1019.1 1019.1 0.4
18/02:30am 12.0 9.5 11.2 95 0.4 WSW 15 20 8 11 1019.5 1019.5 0.4
18/02:00am 11.3 10.2 10.5 95 0.4 WSW 7 9 4 5 1019.8 1019.8 0.4
18/01:30am 11.8 10.8 11.0 95 0.4 SW 7 9 4 5 1020.0 1020.0 0.4
18/01:00am 11.5 9.2 10.4 93 0.6 SW 13 13 7 7 1020.2 1020.2 0.4
18/12:30am 12.0 10.2 10.7 92 0.7 WSW 11 17 6 9 1020.5 1020.5 0.4
18/12:00am 11.8 10.3 10.4 91 0.7 WSW 9 13 5 7 1020.3 1020.3 0.4
 
Date/Time
EST
Temp
°C
App
Temp
°C
Dew
Point
°C
Rel
Hum
%
Delta-T
°C
Wind Press
QNH
hPa
Press
MSL
hPa
Rain since
9am
mm
Dir  Spd
km/h
Gust
km/h
Spd
kts
Gust
kts
17/11:30pm 12.2 10.4 10.8 91 0.7 WSW 11 13 6 7 1020.5 1020.5 0.4
17/11:00pm 12.4 10.6 10.8 90 0.8 WSW 11 17 6 9 1020.7 1020.7 0.4
17/10:30pm 12.6 10.3 11.7 94 0.5 WSW 15 20 8 11 1020.9 1020.9 0.4
17/10:00pm 12.7 10.1 11.9 95 0.4 WSW 17 22 9 12 1020.9 1020.9 0.4
17/09:30pm 12.8 8.1 12.0 95 0.4 WSW 28 41 15 22 1020.7 1020.7 0.4
17/09:13pm 12.9 8.7 12.3 96 0.3 W 26 35 14 19 1020.7 1020.7 0.4
17/09:00pm 12.8 11.4 12.3 97 0.3 WNW 11 13 6 7 1020.6 1020.6 0.4
17/08:30pm 12.2 10.6 11.6 96 0.3 WSW 11 17 6 9 1020.8 1020.8 0.2
17/08:00pm 11.7 9.9 10.9 95 0.4 W 11 15 6 8 1020.9 1020.9 0.2
17/07:30pm 12.5 10.9 11.7 95 0.4 W 11 15 6 8 1021.0 1021.0 0.2
17/07:00pm 12.1 10.0 11.2 94 0.5 WSW 13 15 7 8 1020.9 1020.9 0.2
17/06:30pm 13.0 10.4 12.1 94 0.5 WSW 17 26 9 14 1020.7 1020.7 0.2
17/06:00pm 12.6 10.1 11.0 90 0.8 WSW 15 22 8 12 1020.4 1020.4 0.0
17/05:30pm 13.6 9.8 11.3 86 1.2 WSW 22 28 12 15 1020.2 1020.2 0.0
17/05:00pm 14.5 10.1 10.5 77 2.1 W 24 33 13 18 1020.1 1020.1 0.0
17/04:30pm 14.8 11.3 10.8 77 2.1 WSW 20 26 11 14 1020.0 1020.0 0.0
17/04:00pm 14.9 10.9 10.5 75 2.3 WSW 22 30 12 16 1019.9 1019.9 0.0
17/03:30pm 16.0 11.8 11.2 73 2.6 WSW 24 33 13 18 1019.9 1019.9 0.0
17/03:00pm 15.4 11.8 12.0 80 1.8 W 22 28 12 15 1020.0 1020.0 0.0
17/02:30pm 15.3 11.3 11.7 79 1.9 WSW 24 32 13 17 1019.9 1019.9 0.0
17/02:00pm 15.5 11.4 11.5 77 2.1 WSW 24 33 13 18 1019.9 1019.9 0.0
17/01:30pm 15.2 9.5 11.8 80 1.8 W 33 41 18 22 1020.1 1020.1 0.0
17/01:00pm 14.8 11.0 12.3 85 1.4 WSW 24 37 13 20 1020.4 1020.4 0.0
17/12:30pm 15.8 11.1 12.0 78 2.1 WSW 28 41 15 22 1020.8 1020.8 0.0
17/12:00pm 16.6 12.5 12.6 77 2.2 W 26 35 14 19 1021.1 1021.1 0.0
17/11:30am 15.5 10.7 11.5 77 2.2 W 28 35 15 19 1021.4 1021.4 0.0
17/11:00am 15.9 12.5 12.5 80 1.9 W 22 32 12 17 1021.5 1021.5 0.0
17/10:30am 15.0 11.6 12.5 85 1.4 W 22 30 12 16 1021.6 1021.6 0.0
17/10:00am 13.5 9.5 11.7 89 1.0 WSW 24 35 13 19 1021.8 1021.8 0.0
17/09:30am 15.5 12.3 11.1 75 2.3 W 19 28 10 15 1021.7 1021.7 0.0
17/09:00am 13.9 10.4 10.1 78 2.0 W 19 26 10 14 1021.9 1021.9 0.0
17/08:30am 13.2 10.3 9.6 79 1.8 W 15 20 8 11 1021.9 1021.9 0.0
17/08:00am 12.5 10.0 9.7 83 1.4 W 13 15 7 8 1021.7 1021.7 0.0
17/07:30am 11.4 9.5 9.1 86 1.1 WNW 9 13 5 7 1021.5 1021.5 0.0
17/07:00am 11.3 8.6 9.0 86 1.1 W 13 15 7 8 1021.5 1021.5 0.0
17/06:30am 11.3 8.7 9.2 87 1.0 W 13 17 7 9 1021.4 1021.4 0.0
17/06:00am 11.0 7.7 8.2 83 1.4 W 15 17 8 9 1021.3 1021.3 0.0
17/05:30am 11.7 8.1 8.4 80 1.6 W 17 20 9 11 1021.3 1021.3 0.0
17/05:00am 11.0 8.7 7.5 79 1.7 W 9 11 5 6 1021.2 1021.2 0.0
17/04:30am 11.6 8.6 7.5 76 2.0 W 13 17 7 9 1021.2 1021.2 0.0
17/04:00am 11.3 7.8 7.0 75 2.0 W 15 20 8 11 1021.0 1021.0 0.0
17/03:30am 11.2 7.9 8.1 81 1.5 W 15 17 8 9 1021.1 1021.1 0.0
17/03:00am 11.2 8.8 8.8 85 1.2 WSW 11 13 6 7 1021.3 1021.3 0.0
17/02:30am 11.7 7.8 8.6 81 1.5 WSW 19 30 10 16 1021.6 1021.6 0.0
17/02:00am 10.9 8.7 7.8 81 1.5 WSW 9 11 5 6 1021.7 1021.7 0.0
17/01:30am 11.4 8.3 7.3 76 2.0 WSW 13 17 7 9 1021.8 1021.8 0.0
17/01:00am 11.7 7.7 6.8 72 2.3 W 17 20 9 11 1021.7 1021.7 0.0
17/12:30am 11.1 7.9 7.0 76 2.0 WSW 13 15 7 8 1021.8 1021.8 0.0
17/12:00am 11.0 7.4 6.7 75 2.0 SW 15 19 8 10 1021.9 1021.9 0.0
 
Date/Time
EST
Temp
°C
App
Temp
°C
Dew
Point
°C
Rel
Hum
%
Delta-T
°C
Wind Press
QNH
hPa
Press
MSL
hPa
Rain since
9am
mm
Dir  Spd
km/h
Gust
km/h
Spd
kts
Gust
kts
16/11:30pm 10.5 7.9 7.7 83 1.3 WSW 11 19 6 10 1022.3 1022.3 0.0
16/11:00pm 10.3 8.2 8.1 86 1.1 WSW 9 13 5 7 1022.5 1022.5 0.0
16/10:30pm 10.4 8.3 8.2 86 1.1 WSW 9 11 5 6 1022.7 1022.7 0.0
16/10:00pm 10.5 8.4 8.1 85 1.2 SW 9 13 5 7 1022.7 1022.7 0.0
16/09:30pm 10.6 8.1 8.4 86 1.1 W 11 15 6 8 1022.7 1022.7 0.0
16/09:00pm 10.5 8.0 8.3 86 1.1 W 11 11 6 6 1022.7 1022.7 0.0
16/08:30pm 10.8 8.3 8.4 85 1.2 W 11 13 6 7 1022.7 1022.7 0.0
16/08:00pm 10.1 8.2 8.9 92 0.6 W 9 15 5 8 1022.8 1022.8 0.0
16/07:30pm 10.1 8.5 8.7 91 0.7 WSW 7 9 4 5 1022.9 1022.9 0.0
16/07:00pm 10.2 8.2 8.6 90 0.8 WSW 9 9 5 5 1022.8 1022.8 0.0
16/06:30pm 10.3 8.8 8.6 89 0.8 WSW 6 7 3 4 1022.5 1022.5 0.0
16/06:00pm 10.6 8.9 8.5 87 1.0 WSW 7 9 4 5 1022.3 1022.3 0.0
16/05:30pm 11.0 8.2 8.4 84 1.3 SW 13 17 7 9 1022.2 1022.2 0.0
16/05:00pm 11.2 9.2 8.6 84 1.3 WSW 9 13 5 7 1022.1 1022.1 0.0
16/04:30pm 11.2 8.5 8.9 86 1.1 SW 13 15 7 8 1022.1 1022.1 0.0
16/04:00pm 10.7 5.4 8.3 85 1.2 SW 26 35 14 19 1022.3 1022.3 0.0
16/03:30pm 12.5 9.0 7.0 69 2.6 WSW 15 19 8 10 1022.1 1022.1 0.0
16/03:00pm 12.9 9.1 7.4 69 2.7 WSW 17 22 9 12 1022.1 1022.1 0.0
16/02:30pm 12.7 8.4 7.0 68 2.7 SW 19 24 10 13 1022.1 1022.1 0.0
16/02:00pm 13.4 9.0 7.6 68 2.8 WSW 20 28 11 15 1022.1 1022.1 0.0
16/01:30pm 12.7 8.2 7.0 68 2.7 SW 20 26 11 14 1022.2 1022.2 0.0
16/01:00pm 12.6 7.8 7.3 70 2.6 WSW 22 28 12 15 1022.3 1022.3 0.0
16/12:30pm 12.7 8.2 7.0 68 2.7 WSW 20 26 11 14 1022.4 1022.4 0.0
16/12:00pm 12.5 7.5 6.5 67 2.8 SW 22 32 12 17 1022.6 1022.6 0.0
16/11:30am 12.6 7.6 6.6 67 2.9 WSW 22 26 12 14 1022.7 1022.7 0.0
16/11:00am 12.7 9.2 7.4 70 2.6 WSW 15 24 8 13 1022.6 1022.6 0.0
16/10:30am 11.8 8.0 7.5 75 2.1 WSW 17 20 9 11 1022.6 1022.6 0.0

Other formats

Comma delimited format used in spreadsheet applications
http://www.bom.gov.au/fwo/IDT60801/IDT60801.94953.axf

JavaScript Object Notation format (JSON) in row-major order
http://www.bom.gov.au/fwo/IDT60801/IDT60801.94953.json

Data quality

Most of these data are generated automatically and are frequently updated. Quality checks on data are not normally performed. It is possible for incorrect values to appear. Refer to information at About Latest Weather Observations and please check the disclaimer before using these data.